Impacts TAF Board INFO
FOR SITUATIONAL AWARENESS. NOT TO BE USED FOR FLIGHT PLANNING PURPOSES.
IDs:

KATL - Atlanta/Hartsfield-J, GA, US

Issued at 1946 UTC 24 Apr 2018
Updated at 2044 UTC 24 Apr 2018
Potential Impact None Slight Moderate High
Time1952Z 24/21Z 24/22Z 24/23Z 25/00Z 25/01Z 25/02Z 25/03Z 25/04Z 25/05Z 25/06Z 25/07Z 25/08Z 25/09Z>>
Type OBS PRVL
  [TEMP]  
PRVL
  [TEMP]  
PRVL PRVL PRVL PRVL PRVL PRVL PRVL PRVL PRVL PRVL PRVL
VIS 10 >6
  [6.21]  
>6
  [6.21]  
>6 >6 >6 >6 >6 >6 >6 >6 >6 >6 >6
CIG -- 40
  [30]  
40
  [30]  
40 70 70 70 70 70 70 70 25 25 25
Cover SCT BKN
  [OVC]  
BKN
  [OVC]  
BKN BKN BKN BKN BKN BKN BKN BKN BKN BKN BKN
FltCat VFR VFR
  [MVFR]  
VFR
  [MVFR]  
VFR VFR VFR VFR VFR VFR VFR VFR MVFR MVFR MVFR
WX -- --
  [-SHRA]  
--
  [-SHRA]  
-- -- -- -- -- -- -- -- -- -- --
WDir 260 290
[290]
290
[290]
290 300 300 300 300 300 300 300 300 300 300
WSpd 12 10
  [10]  
10
  [10]  
10 11 11 11 11 11 11 11 10 10 10
WGst 18 18
  [18]  
18
  [18]  
18 -- -- -- -- -- -- -- -- -- --

Raw TAF
KATL 241946Z 2420/2524 29010G18KT P6SM FEW020 BKN040
  TEMPO 2420/2423 P6SM -SHRA OVC030
  FM250000 30011KT P6SM SCT035 BKN070
  FM250700 30010KT P6SM BKN025
  FM251000 31008KT P6SM BKN015
  FM251500 31012G20KT P6SM SCT030
  FM252100 32015G23KT P6SM BKN050


Raw METAR
KATL 241952Z 26012G18KT 10SM FEW025 SCT040 SCT080 20/14 A2986 RMK AO2 SLP106 MDT CU N-NE T02000139
KATL 241852Z 29013G19KT 10SM FEW020 BKN050 BKN080 19/15 A2988 RMK AO2 RAE06 SLP113 TCU DSNT NE-SE MDT CU SW-NW SHRA DSNT NE-SE P0000 T01940150
KATL 241752Z 29013KT 9SM -RA SCT017TCU BKN030 OVC050 17/15 A2988 RMK AO2 RAB50 SLP115 TCU N-NE-E-SE P0000 60000 T01670150 10189 20150 58003

METAR Board
Radar Display
Forecast Discussion

FOR SITUATIONAL AWARENESS. NOT TO BE USED FOR FLIGHT PLANNING PURPOSES.